Time;durP1;ratioP1;P1;durP2;ratioP2;P2;SDS_P1;SDS_P2;PMS_P1;PMS_P2;Temp;Humidity;BMP_temperature;BMP_pressure;BME280_temperature;BME280_humidity;BME280_pressure;Samples;Min_cycle;Max_cycle;Signal;HPM_P1;HPM_P2
2023/03/05 00:02:12;;;;;;;7.30;1.73;;;5.80;74.90;;;;;;9178398;19;20018;-64
2023/03/05 00:05:18;;;;;;;13.15;1.95;;;5.70;74.90;;;;;;9176486;19;20014;-64
2023/03/05 00:08:22;;;;;;;9.13;1.98;;;5.70;75.00;;;;;;9177318;19;20070;-64
2023/03/05 00:11:32;;;;;;;9.57;1.63;;;5.70;75.00;;;;;;9176795;19;20417;-64
2023/03/05 00:14:36;;;;;;;11.40;1.98;;;5.70;75.10;;;;;;9179400;19;20026;-64
2023/03/05 00:17:42;;;;;;;6.07;1.67;;;5.70;75.10;;;;;;9177760;19;20602;-64
2023/03/05 00:20:47;;;;;;;10.45;2.47;;;5.70;75.10;;;;;;9173027;19;20016;-64
2023/03/05 00:23:55;;;;;;;8.35;1.70;;;5.70;75.10;;;;;;9182298;19;20055;-64
2023/03/05 00:27:01;;;;;;;13.43;1.88;;;5.70;75.10;;;;;;9179191;19;20022;-64
2023/03/05 00:30:09;;;;;;;8.38;1.60;;;5.60;75.10;;;;;;9172742;19;20011;-64
2023/03/05 00:33:13;;;;;;;11.57;1.85;;;5.70;75.20;;;;;;9178107;19;20021;-64
2023/03/05 00:36:19;;;;;;;12.90;2.85;;;5.60;75.20;;;;;;9181307;19;20451;-64
2023/03/05 00:39:23;;;;;;;9.82;1.85;;;5.60;75.20;;;;;;9178944;19;20018;-64
2023/03/05 00:42:37;;;;;;;14.75;3.70;;;5.60;75.20;;;;;;9182339;19;20022;-64
2023/03/05 00:45:41;;;;;;;11.65;2.25;;;5.60;75.30;;;;;;9179270;19;20034;-64
2023/03/05 00:48:47;;;;;;;10.77;1.85;;;5.60;75.30;;;;;;9178918;19;20010;-64
2023/03/05 00:51:51;;;;;;;8.57;2.10;;;5.60;75.30;;;;;;9175552;19;20115;-64
2023/03/05 00:54:57;;;;;;;11.00;2.05;;;5.60;75.30;;;;;;9179905;19;20018;-63
2023/03/05 00:58:04;;;;;;;10.18;1.55;;;5.60;75.30;;;;;;9181229;19;20483;-64
2023/03/05 01:01:10;;;;;;;11.98;1.70;;;5.60;75.40;;;;;;9180480;19;20015;-64
2023/03/05 01:04:14;;;;;;;13.73;1.80;;;5.60;75.30;;;;;;9178972;19;20047;-64
2023/03/05 01:07:20;;;;;;;4.88;1.80;;;5.60;75.30;;;;;;9178605;19;20029;-63
2023/03/05 01:10:26;;;;;;;13.15;2.17;;;5.60;75.40;;;;;;9178239;19;20376;-64
2023/03/05 01:13:34;;;;;;;17.65;2.22;;;5.60;75.40;;;;;;9178154;19;21752;-64
2023/03/05 01:16:39;;;;;;;10.38;2.08;;;5.60;75.40;;;;;;9172560;19;20019;-64
2023/03/05 01:19:47;;;;;;;9.98;3.15;;;5.60;75.50;;;;;;9178557;19;20014;-64
2023/03/05 01:22:51;;;;;;;9.23;2.00;;;5.60;75.50;;;;;;9180026;19;20007;-64
2023/03/05 01:25:59;;;;;;;9.00;1.70;;;5.60;75.50;;;;;;9178498;19;20483;-64
2023/03/05 01:29:05;;;;;;;8.02;2.05;;;5.60;75.50;;;;;;9179918;19;20026;-64
2023/03/05 01:32:12;;;;;;;8.80;1.60;;;5.60;75.50;;;;;;9179028;19;20029;-64
2023/03/05 01:35:19;;;;;;;15.82;2.05;;;5.60;75.50;;;;;;9176751;19;20476;-64
2023/03/05 01:38:25;;;;;;;7.55;2.17;;;5.50;75.50;;;;;;9178060;19;20011;-64
2023/03/05 01:41:29;;;;;;;13.73;2.40;;;5.50;75.50;;;;;;9179640;19;20467;-63
2023/03/05 01:44:37;;;;;;;9.93;2.40;;;5.50;75.60;;;;;;9176815;19;20021;-63
2023/03/05 01:47:42;;;;;;;12.63;3.40;;;5.60;75.70;;;;;;9176150;19;20019;-63
2023/03/05 01:50:48;;;;;;;12.40;2.13;;;5.50;75.60;;;;;;9177461;19;20022;-64
2023/03/05 01:53:52;;;;;;;;;;;5.50;75.70;;;;;;9178310;19;20006;-64
2023/03/05 01:57:00;;;;;;;10.20;2.17;;;5.50;75.60;;;;;;9177671;19;19919;-64
2023/03/05 02:00:11;;;;;;;10.07;2.13;;;5.50;75.50;;;;;;9173133;19;20018;-64
2023/03/05 02:03:21;;;;;;;13.55;2.10;;;5.50;75.60;;;;;;9174774;19;20023;-64
2023/03/05 02:06:25;;;;;;;7.18;1.63;;;5.50;75.70;;;;;;9178673;19;20047;-64
2023/03/05 02:09:31;;;;;;;6.68;1.65;;;5.50;75.70;;;;;;9175701;19;20021;-65
2023/03/05 02:12:35;;;;;;;;;;;5.50;75.70;;;;;;9180089;19;20015;-66
2023/03/05 02:15:43;;;;;;;6.25;1.88;;;5.50;75.80;;;;;;9178103;19;19921;-64
2023/03/05 02:18:47;;;;;;;18.20;1.98;;;5.50;75.70;;;;;;9171028;19;20015;-64
2023/03/05 02:21:55;;;;;;;13.55;2.10;;;5.50;75.70;;;;;;9175626;19;20019;-64
2023/03/05 02:24:59;;;;;;;10.38;2.25;;;5.40;75.70;;;;;;9175943;19;20003;-64
2023/03/05 02:28:10;;;;;;;13.02;2.08;;;5.40;75.70;;;;;;9177171;19;20018;-64
2023/03/05 02:31:17;;;;;;;12.43;2.03;;;5.40;75.80;;;;;;9175843;19;20018;-64
2023/03/05 02:34:23;;;;;;;15.82;2.03;;;5.40;75.80;;;;;;9176700;19;20017;-64
2023/03/05 02:37:29;;;;;;;10.90;2.13;;;5.40;75.90;;;;;;9174782;19;20022;-64
2023/03/05 02:40:35;;;;;;;5.90;1.58;;;5.40;75.90;;;;;;9173648;19;20487;-64
2023/03/05 02:43:39;;;;;;;13.85;2.08;;;5.40;75.90;;;;;;9172999;19;20018;-64
2023/03/05 02:46:46;;;;;;;6.38;1.40;;;5.40;75.90;;;;;;9176008;19;20010;-64
2023/03/05 02:49:50;;;;;;;;;;;5.40;75.90;;;;;;9177184;19;20471;-64
2023/03/05 02:52:58;;;;;;;9.48;1.88;;;5.40;75.90;;;;;;9174756;19;19932;-65
2023/03/05 02:56:03;;;;;;;8.15;2.00;;;5.40;75.80;;;;;;9174012;19;20093;-64
2023/03/05 02:59:12;;;;;;;9.32;1.98;;;5.40;75.90;;;;;;9175093;19;20018;-64
2023/03/05 03:02:16;;;;;;;7.65;2.13;;;5.40;75.90;;;;;;9174187;19;20456;-64
2023/03/05 03:05:22;;;;;;;8.35;1.83;;;5.40;76.00;;;;;;9175747;19;20106;-64
2023/03/05 03:08:28;;;;;;;4.88;1.70;;;5.40;76.10;;;;;;9173995;19;20014;-64
2023/03/05 03:11:34;;;;;;;7.38;1.60;;;5.40;76.00;;;;;;9175766;19;20881;-65
2023/03/05 03:14:41;;;;;;;8.50;1.38;;;5.40;76.00;;;;;;9174187;19;20070;-64
2023/03/05 03:17:47;;;;;;;5.45;1.27;;;5.40;76.10;;;;;;9170153;19;20045;-64
2023/03/05 03:20:51;;;;;;;;;;;5.40;76.00;;;;;;9173521;19;20014;-64
2023/03/05 03:23:58;;;;;;;4.68;1.35;;;5.30;76.00;;;;;;9173343;19;19931;-64
2023/03/05 03:27:03;;;;;;;3.78;1.55;;;5.30;75.90;;;;;;9174242;19;20014;-64
2023/03/05 03:30:11;;;;;;;6.20;1.70;;;5.30;76.00;;;;;;9174781;19;20380;-64
2023/03/05 03:33:16;;;;;;;8.02;1.83;;;5.30;76.00;;;;;;9174549;19;20484;-65
2023/03/05 03:36:22;;;;;;;6.30;1.95;;;5.30;76.10;;;;;;9174736;19;20025;-65
2023/03/05 03:39:28;;;;;;;;;;;5.30;76.10;;;;;;9171451;19;20025;-64
2023/03/05 03:42:34;;;;;;;5.82;1.45;;;5.30;76.10;;;;;;9173885;19;19927;-65
2023/03/05 03:45:42;;;;;;;4.60;1.65;;;5.30;76.00;;;;;;9174713;19;20007;-64
2023/03/05 03:48:51;;;;;;;4.40;1.33;;;5.30;76.10;;;;;;9174180;19;20010;-64
2023/03/05 03:51:57;;;;;;;8.52;1.60;;;5.30;76.70;;;;;;9173762;19;20014;-64
2023/03/05 03:55:05;;;;;;;9.25;1.33;;;5.20;76.10;;;;;;9173942;19;20014;-65
2023/03/05 03:58:09;;;;;;;6.93;1.60;;;5.20;76.20;;;;;;9172114;19;20022;-64
2023/03/05 04:01:15;;;;;;;7.28;1.40;;;5.20;76.20;;;;;;9169932;19;20364;-64
2023/03/05 04:04:19;;;;;;;;;;;5.20;76.30;;;;;;9172196;19;20499;-64
2023/03/05 04:07:25;;;;;;;6.50;1.48;;;5.20;76.30;;;;;;9172794;19;19915;-64
2023/03/05 04:10:31;;;;;;;4.68;1.13;;;5.20;76.10;;;;;;9172429;19;20011;-64
2023/03/05 04:13:36;;;;;;;8.02;1.27;;;5.20;76.20;;;;;;9171678;19;20022;-65
2023/03/05 04:16:40;;;;;;;;;;;5.20;76.20;;;;;;9169453;19;20010;-64
2023/03/05 04:19:46;;;;;;;4.10;1.10;;;5.20;76.30;;;;;;9171999;19;19921;-65
2023/03/05 04:22:50;;;;;;;5.22;1.25;;;5.20;76.10;;;;;;9173201;19;20019;-65
2023/03/05 04:25:59;;;;;;;8.77;1.77;;;5.20;76.20;;;;;;9172945;19;20015;-64
2023/03/05 04:29:03;;;;;;;5.85;1.45;;;5.20;76.30;;;;;;9181088;19;20431;-64
2023/03/05 04:32:09;;;;;;;3.97;1.48;;;5.20;76.30;;;;;;9181070;19;20112;-64
2023/03/05 04:35:13;;;;;;;9.98;1.80;;;5.10;76.30;;;;;;9179500;19;20015;-64
2023/03/05 04:38:20;;;;;;;5.07;1.10;;;5.10;76.30;;;;;;9177722;19;20021;-64
2023/03/05 04:41:26;;;;;;;5.88;1.23;;;5.10;76.40;;;;;;9178731;19;20487;-64
2023/03/05 04:44:32;;;;;;;5.15;1.23;;;5.10;76.40;;;;;;9178946;19;20011;-64
2023/03/05 04:47:36;;;;;;;4.15;1.42;;;5.10;76.40;;;;;;9181175;19;20010;-64
2023/03/05 04:50:42;;;;;;;5.00;1.33;;;5.10;76.50;;;;;;9180613;19;20010;-64
2023/03/05 04:53:46;;;;;;;10.57;1.63;;;5.10;76.50;;;;;;9180765;19;20025;-64
2023/03/05 04:56:54;;;;;;;12.95;1.80;;;5.10;76.50;;;;;;9181015;19;20026;-64
2023/03/05 04:59:59;;;;;;;11.80;1.85;;;5.10;76.60;;;;;;9179126;19;20014;-64
2023/03/05 05:03:05;;;;;;;6.63;1.70;;;5.10;76.60;;;;;;9177965;19;20015;-64
2023/03/05 05:06:09;;;;;;;6.50;1.65;;;5.10;76.60;;;;;;9178158;19;20634;-64
2023/03/05 05:09:16;;;;;;;8.70;2.38;;;5.10;76.60;;;;;;9177693;19;20352;-64
2023/03/05 05:12:21;;;;;;;3.45;1.05;;;5.10;76.60;;;;;;9179943;19;20021;-64
2023/03/05 05:15:27;;;;;;;1.75;1.10;;;5.10;76.60;;;;;;9179747;19;20038;-64
2023/03/05 05:18:31;;;;;;;;;;;5.10;76.60;;;;;;9175455;19;20027;-64
2023/03/05 05:21:37;;;;;;;3.28;1.08;;;5.10;76.60;;;;;;9174661;19;19919;-64
2023/03/05 05:24:41;;;;;;;5.70;1.10;;;5.00;76.50;;;;;;9179326;19;20135;-64
2023/03/05 05:27:49;;;;;;;3.70;1.00;;;5.00;76.60;;;;;;9179741;19;20026;-64
2023/03/05 05:30:54;;;;;;;8.02;1.25;;;5.00;76.60;;;;;;9179854;19;20583;-64
2023/03/05 05:34:00;;;;;;;1.90;1.02;;;5.00;76.70;;;;;;9176136;19;20017;-64
2023/03/05 05:37:04;;;;;;;5.50;1.30;;;5.00;76.80;;;;;;9179952;19;20018;-64
2023/03/05 05:40:12;;;;;;;7.40;1.45;;;5.00;76.80;;;;;;9178131;19;20015;-64
2023/03/05 05:43:18;;;;;;;7.03;1.50;;;5.00;76.90;;;;;;9180917;19;20351;-64
2023/03/05 05:46:25;;;;;;;5.05;1.23;;;5.00;76.90;;;;;;9181552;19;20022;-65
2023/03/05 05:49:29;;;;;;;3.15;1.40;;;5.00;76.90;;;;;;9179143;19;20105;-64
2023/03/05 05:52:35;;;;;;;7.53;1.20;;;5.00;76.90;;;;;;9180752;19;20113;-66
2023/03/05 05:55:40;;;;;;;;;;;5.00;76.90;;;;;;9181912;19;20094;-64
2023/03/05 05:58:49;;;;;;;5.75;1.33;;;5.00;77.00;;;;;;9180783;19;19918;-64
2023/03/05 06:01:53;;;;;;;1.63;1.42;;;5.00;76.90;;;;;;9180296;19;20014;-64
2023/03/05 06:05:00;;;;;;;4.43;1.20;;;5.00;76.90;;;;;;9180008;19;20022;-64
2023/03/05 06:08:04;;;;;;;5.70;1.25;;;5.00;77.00;;;;;;9176728;19;20047;-64
2023/03/05 06:11:10;;;;;;;4.28;1.35;;;5.00;77.10;;;;;;9179547;19;20021;-64
2023/03/05 06:14:16;;;;;;;2.15;1.17;;;5.00;77.10;;;;;;9178686;19;20011;-64
2023/03/05 06:17:23;;;;;;;8.40;1.83;;;5.00;77.10;;;;;;9174639;19;20021;-64
2023/03/05 06:20:34;;;;;;;5.72;1.30;;;5.00;77.10;;;;;;9176347;19;20015;-64
2023/03/05 06:23:43;;;;;;;9.07;1.58;;;5.00;77.10;;;;;;9179217;19;20011;-64
2023/03/05 06:26:48;;;;;;;9.25;1.42;;;5.00;77.10;;;;;;9177790;19;20085;-64
2023/03/05 06:29:57;;;;;;;14.10;3.17;;;5.00;77.10;;;;;;9174537;19;20475;-64
2023/03/05 06:33:00;;;;;;;4.45;1.65;;;5.00;77.20;;;;;;9179777;19;20014;-64
2023/03/05 06:36:09;;;;;;;7.47;1.80;;;5.00;77.10;;;;;;9179034;19;20613;-64
2023/03/05 06:39:13;;;;;;;8.95;3.00;;;5.00;77.20;;;;;;9177536;19;20024;-64
2023/03/05 06:42:19;;;;;;;5.72;2.30;;;5.10;77.30;;;;;;9178756;19;20026;-64
2023/03/05 06:45:25;;;;;;;5.57;2.05;;;5.10;77.30;;;;;;9171881;19;20010;-64
2023/03/05 06:48:33;;;;;;;4.82;1.77;;;5.10;77.90;;;;;;9169544;19;20014;-64
2023/03/05 06:51:39;;;;;;;2.83;1.33;;;5.10;77.30;;;;;;9167422;19;20019;-65
2023/03/05 06:54:49;;;;;;;6.13;1.80;;;5.10;77.40;;;;;;9166129;19;20006;-63
2023/03/05 06:57:57;;;;;;;8.98;2.28;;;5.10;77.40;;;;;;9166948;19;20101;-62
2023/03/05 07:01:06;;;;;;;8.75;2.13;;;5.00;77.30;;;;;;9163900;19;20014;-62
2023/03/05 07:04:10;;;;;;;6.07;2.22;;;5.10;77.50;;;;;;9162955;19;20113;-63
2023/03/05 07:07:16;;;;;;;3.03;1.50;;;5.10;77.50;;;;;;9173406;19;20361;-63
2023/03/05 07:10:20;;;;;;;7.03;1.70;;;5.10;77.60;;;;;;9173551;19;20037;-63
2023/03/05 07:13:27;;;;;;;5.97;1.60;;;5.10;77.60;;;;;;9164902;19;20535;-63
2023/03/05 07:16:35;;;;;;;7.85;1.60;;;5.10;77.60;;;;;;9162933;19;20035;-63
2023/03/05 07:19:42;;;;;;;9.18;1.85;;;5.10;77.70;;;;;;9177291;19;20101;-63
2023/03/05 07:22:46;;;;;;;3.83;1.60;;;5.10;77.70;;;;;;9176974;19;20015;-63
2023/03/05 07:25:53;;;;;;;13.15;2.92;;;5.10;77.70;;;;;;9174557;19;20020;-63
2023/03/05 07:28:58;;;;;;;8.90;2.30;;;5.10;77.70;;;;;;9177979;19;20474;-63
2023/03/05 07:32:07;;;;;;;6.20;2.00;;;5.10;77.70;;;;;;9176920;19;20024;-63
2023/03/05 07:35:11;;;;;;;5.38;1.55;;;5.10;77.70;;;;;;9175654;19;20019;-63
2023/03/05 07:38:17;;;;;;;4.55;1.20;;;5.20;77.80;;;;;;9176927;19;20014;-63
2023/03/05 07:41:22;;;;;;;2.65;1.10;;;5.20;77.80;;;;;;9174085;19;20015;-63
2023/03/05 07:44:28;;;;;;;8.95;2.85;;;5.20;77.80;;;;;;9176379;19;20030;-63
2023/03/05 07:47:34;;;;;;;4.40;1.77;;;5.20;77.90;;;;;;9177141;19;20106;-63
2023/03/05 07:50:40;;;;;;;2.90;1.45;;;5.20;77.80;;;;;;9176524;19;20029;-63
2023/03/05 07:53:45;;;;;;;6.47;1.20;;;5.30;77.90;;;;;;9176319;19;20037;-63
2023/03/05 07:56:51;;;;;;;5.68;1.63;;;5.30;78.00;;;;;;9175422;19;20007;-63
2023/03/05 07:59:55;;;;;;;5.82;1.45;;;5.40;78.00;;;;;;9175297;19;20037;-63
2023/03/05 08:03:04;;;;;;;7.50;2.78;;;5.40;78.00;;;;;;9181779;19;20014;-63
2023/03/05 08:06:08;;;;;;;6.00;2.20;;;5.40;78.10;;;;;;9184422;19;20014;-64
2023/03/05 08:09:15;;;;;;;6.03;1.90;;;5.40;78.00;;;;;;9182464;19;20019;-64
2023/03/05 08:12:19;;;;;;;3.53;1.75;;;5.50;78.10;;;;;;9182875;19;20022;-64
2023/03/05 08:15:25;;;;;;;2.95;1.50;;;5.50;78.10;;;;;;9183929;19;20363;-64
2023/03/05 08:18:31;;;;;;;4.25;1.30;;;5.60;78.20;;;;;;9178483;19;20364;-64
2023/03/05 08:21:37;;;;;;;3.22;1.45;;;5.60;78.20;;;;;;9181445;19;20007;-63
2023/03/05 08:24:42;;;;;;;4.13;1.35;;;5.60;78.10;;;;;;9183298;19;20018;-64
2023/03/05 08:27:49;;;;;;;2.67;1.25;;;5.70;78.20;;;;;;9183864;19;20022;-64
2023/03/05 08:30:53;;;;;;;10.07;1.50;;;5.70;78.50;;;;;;9184052;19;20014;-64
2023/03/05 08:34:03;;;;;;;11.52;1.35;;;5.70;78.10;;;;;;9183376;19;20010;-64
2023/03/05 08:37:08;;;;;;;7.57;1.50;;;5.80;78.20;;;;;;9183073;19;20007;-63
2023/03/05 08:40:16;;;;;;;4.65;1.50;;;5.80;78.20;;;;;;9180325;19;20026;-63
2023/03/05 08:43:20;;;;;;;8.48;1.80;;;5.80;78.30;;;;;;9182769;19;20090;-64
2023/03/05 08:46:26;;;;;;;7.05;1.38;;;5.90;78.30;;;;;;9182787;19;20025;-63
2023/03/05 08:49:32;;;;;;;3.72;1.77;;;5.90;78.30;;;;;;9181490;19;20010;-63
2023/03/05 08:52:38;;;;;;;6.53;1.58;;;6.00;79.00;;;;;;9182069;19;20006;-63
2023/03/05 08:55:42;;;;;;;;;;;6.00;78.30;;;;;;9183417;19;20017;-63
2023/03/05 08:58:51;;;;;;;1.67;1.02;;;6.00;78.30;;;;;;9181907;19;19929;-63
2023/03/05 09:01:55;;;;;;;10.35;1.30;;;6.10;78.10;;;;;;9173275;19;20086;-63
2023/03/05 09:05:04;;;;;;;4.53;1.10;;;6.10;78.20;;;;;;9176090;19;20349;-63
2023/03/05 09:08:08;;;;;;;4.28;1.20;;;6.20;78.40;;;;;;9172391;19;20022;-63
2023/03/05 09:11:14;;;;;;;5.35;1.63;;;6.30;78.50;;;;;;9174930;19;20015;-63
2023/03/05 09:14:19;;;;;;;7.35;1.67;;;6.40;78.60;;;;;;9173845;19;20051;-63
2023/03/05 09:17:25;;;;;;;5.10;1.20;;;6.50;78.60;;;;;;9166042;19;20400;-66
2023/03/05 09:20:32;;;;;;;2.65;0.93;;;6.70;78.60;;;;;;9173777;19;20014;-63
2023/03/05 09:23:38;;;;;;;7.45;0.93;;;6.80;78.60;;;;;;9173497;19;20091;-64
2023/03/05 09:26:43;;;;;;;1.83;1.00;;;6.90;78.40;;;;;;9173497;19;20017;-63
2023/03/05 09:29:49;;;;;;;6.22;1.13;;;7.00;78.40;;;;;;9172380;19;20018;-63
2023/03/05 09:32:53;;;;;;;2.58;1.05;;;7.10;78.30;;;;;;9174314;19;20843;-64
2023/03/05 09:36:01;;;;;;;9.07;1.70;;;7.20;78.30;;;;;;9172496;19;20014;-63
2023/03/05 09:39:06;;;;;;;5.78;1.70;;;7.40;78.30;;;;;;9173647;19;20007;-64
2023/03/05 09:42:45;;;;;;;3.58;0.98;;;7.50;78.20;;;;;;9168131;19;20097;-64
2023/03/05 09:46:02;;;;;;;6.75;1.15;;;7.60;78.20;;;;;;9172973;19;20035;-64
2023/03/05 09:49:17;;;;;;;2.75;0.75;;;7.80;78.10;;;;;;9171040;19;20010;-63
2023/03/05 09:52:29;;;;;;;10.33;1.33;;;7.90;78.00;;;;;;9173529;19;20107;-64
2023/03/05 09:55:39;;;;;;;;;;;8.00;77.80;;;;;;9174034;19;20454;-64
2023/03/05 09:58:46;;;;;;;2.83;1.00;;;8.20;77.70;;;;;;9170775;19;19922;-64
2023/03/05 10:01:57;;;;;;;6.50;1.00;;;8.30;77.60;;;;;;9169672;19;20614;-63
2023/03/05 10:05:13;;;;;;;4.63;1.27;;;8.40;77.50;;;;;;9171980;19;20393;-64
2023/03/05 10:08:27;;;;;;;5.68;1.33;;;8.50;78.00;;;;;;9168697;19;20010;-64
2023/03/05 10:11:54;;;;;;;15.88;2.58;;;8.60;77.30;;;;;;9172000;19;20022;-64
2023/03/05 10:15:02;;;;;;;4.63;0.90;;;8.70;77.10;;;;;;9167934;19;20775;-64
2023/03/05 10:18:18;;;;;;;6.70;1.02;;;8.90;77.10;;;;;;9166406;19;20364;-64
2023/03/05 10:21:32;;;;;;;5.75;1.27;;;9.00;76.90;;;;;;9166161;19;20010;-64
2023/03/05 10:24:47;;;;;;;3.17;0.80;;;9.20;76.90;;;;;;9169729;19;20017;-64
2023/03/05 10:28:00;;;;;;;9.32;1.20;;;9.30;76.70;;;;;;9168216;19;20041;-64
2023/03/05 10:31:24;;;;;;;5.07;1.20;;;9.40;76.50;;;;;;9172961;19;20021;-64
2023/03/05 10:34:51;;;;;;;3.80;1.08;;;9.50;76.30;;;;;;9170059;19;20014;-64
2023/03/05 10:38:21;;;;;;;2.15;0.75;;;9.60;76.00;;;;;;9171728;19;20018;-64
2023/03/05 10:41:38;;;;;;;6.15;1.05;;;9.70;76.00;;;;;;9166135;19;20021;-64
2023/03/05 10:44:47;;;;;;;3.65;1.20;;;9.70;75.70;;;;;;9161188;19;20487;-64
2023/03/05 10:47:57;;;;;;;3.10;1.08;;;9.80;75.60;;;;;;9162025;19;20018;-62
2023/03/05 10:51:05;;;;;;;6.18;0.63;;;9.80;75.50;;;;;;9158606;19;20093;-63
2023/03/05 10:54:19;;;;;;;8.65;2.75;;;9.80;75.30;;;;;;9164345;19;20010;-63
2023/03/05 10:57:26;;;;;;;6.47;1.45;;;9.80;75.20;;;;;;9159574;19;20037;-63
2023/03/05 11:00:33;;;;;;;7.90;1.00;;;9.90;75.20;;;;;;9157199;19;20021;-63
2023/03/05 11:03:54;;;;;;;3.45;1.15;;;9.90;75.10;;;;;;9157588;19;20019;-62
2023/03/05 11:07:00;;;;;;;17.73;2.95;;;9.90;74.80;;;;;;9159602;19;20365;-63
2023/03/05 11:10:14;;;;;;;;;;;10.00;74.90;;;;;;9163769;19;20043;-63
2023/03/05 11:13:28;;;;;;;11.45;1.88;;;10.00;74.90;;;;;;9164754;19;20782;-63
2023/03/05 11:16:35;;;;;;;8.57;1.38;;;10.10;74.80;;;;;;9155900;19;20073;-63
2023/03/05 11:19:42;;;;;;;5.50;0.80;;;10.00;74.60;;;;;;9168946;19;20515;-62
2023/03/05 11:23:04;;;;;;;2.35;0.80;;;10.00;74.50;;;;;;9163920;19;20026;-63
2023/03/05 11:26:22;;;;;;;4.00;1.10;;;10.10;74.30;;;;;;9161766;19;20038;-63
2023/03/05 11:29:31;;;;;;;3.58;1.02;;;10.10;74.30;;;;;;9160590;19;20670;-63
2023/03/05 11:32:37;;;;;;;4.97;1.20;;;10.10;74.20;;;;;;9159654;19;20014;-63
2023/03/05 11:35:44;;;;;;;6.03;1.00;;;10.10;74.20;;;;;;9162722;19;20026;-63
2023/03/05 11:38:54;;;;;;;3.58;0.98;;;10.10;74.10;;;;;;9175053;19;20367;-64
2023/03/05 11:42:01;;;;;;;8.27;1.20;;;10.20;74.00;;;;;;9173252;19;20015;-64
2023/03/05 11:45:17;;;;;;;7.38;1.10;;;10.20;73.90;;;;;;9171017;19;20014;-63
2023/03/05 11:48:26;;;;;;;7.37;0.87;;;10.20;73.70;;;;;;9171321;19;20018;-64
2023/03/05 11:51:41;;;;;;;4.10;0.95;;;10.20;73.70;;;;;;9175535;19;20014;-64
2023/03/05 11:54:55;;;;;;;5.88;0.75;;;10.30;73.60;;;;;;9175042;19;20019;-64
2023/03/05 11:58:18;;;;;;;6.28;0.70;;;10.30;73.70;;;;;;9174445;19;20011;-64
2023/03/05 12:01:26;;;;;;;4.55;0.77;;;10.30;73.50;;;;;;9172960;19;20018;-64
2023/03/05 12:04:36;;;;;;;4.20;0.90;;;10.40;73.50;;;;;;9173994;19;20495;-63
2023/03/05 12:07:45;;;;;;;4.40;0.90;;;10.40;73.40;;;;;;9170390;19;20082;-64
2023/03/05 12:10:51;;;;;;;13.85;2.88;;;10.40;73.10;;;;;;9175043;19;20014;-64
2023/03/05 12:13:57;;;;;;;;;;;10.50;73.10;;;;;;9175371;19;20494;-64
2023/03/05 12:17:11;;;;;;;5.38;0.98;;;10.50;73.00;;;;;;9171911;19;19926;-63
2023/03/05 12:20:22;;;;;;;3.97;1.00;;;10.50;72.90;;;;;;9176150;19;20015;-63
2023/03/05 12:23:28;;;;;;;6.85;1.02;;;10.50;72.80;;;;;;9174165;19;20353;-64
2023/03/05 12:26:58;;;;;;;9.38;1.20;;;10.50;72.70;;;;;;9171830;19;20093;-63
2023/03/05 12:30:05;;;;;;;4.07;0.82;;;10.40;72.10;;;;;;9167680;19;20414;-63
2023/03/05 12:33:32;;;;;;;4.43;2.00;;;10.40;72.30;;;;;;9168158;19;20057;-64
2023/03/05 12:36:39;;;;;;;4.63;0.85;;;10.40;72.00;;;;;;9168320;19;20372;-63
2023/03/05 12:39:51;;;;;;;4.18;0.80;;;10.30;72.20;;;;;;9172409;19;20090;-63
2023/03/05 12:42:59;;;;;;;6.77;0.73;;;10.30;72.10;;;;;;9163372;19;20018;-63
2023/03/05 12:46:25;;;;;;;6.88;0.95;;;10.30;72.20;;;;;;9168479;19;20022;-64
2023/03/05 12:49:39;;;;;;;3.38;0.82;;;10.20;71.80;;;;;;9169949;19;20017;-63
2023/03/05 12:52:46;;;;;;;6.18;0.90;;;10.10;71.90;;;;;;9166771;19;20019;-63
2023/03/05 12:55:58;;;;;;;4.15;0.95;;;10.10;72.00;;;;;;9167697;19;20014;-63
2023/03/05 12:59:04;;;;;;;5.65;1.08;;;10.00;71.80;;;;;;9167326;19;20018;-64
2023/03/05 13:02:24;;;;;;;5.20;1.00;;;10.00;71.80;;;;;;9163902;19;20054;-64
2023/03/05 13:05:32;;;;;;;7.65;0.90;;;9.90;71.70;;;;;;9167917;19;20645;-64
2023/03/05 13:08:39;;;;;;;2.67;0.80;;;9.80;71.70;;;;;;9165659;19;20018;-64
2023/03/05 13:11:45;;;;;;;3.15;0.77;;;9.80;71.80;;;;;;9166437;19;20010;-64
2023/03/05 13:14:59;;;;;;;3.70;0.93;;;9.80;71.80;;;;;;9167164;19;20695;-64
2023/03/05 13:18:07;;;;;;;2.65;0.77;;;9.70;71.70;;;;;;9161000;19;20031;-63
2023/03/05 13:21:17;;;;;;;4.00;0.85;;;9.70;71.80;;;;;;9165358;19;20684;-64
2023/03/05 13:24:21;;;;;;;8.85;1.55;;;9.70;71.70;;;;;;9166561;19;20022;-64
2023/03/05 13:27:31;;;;;;;8.52;1.00;;;9.60;71.70;;;;;;9165200;19;20015;-63
2023/03/05 13:30:35;;;;;;;4.72;0.80;;;9.60;71.60;;;;;;9164579;19;20621;-64
2023/03/05 13:33:41;;;;;;;4.32;1.33;;;9.50;71.60;;;;;;9165578;19;20292;-64
2023/03/05 13:36:56;;;;;;;2.05;0.75;;;9.50;71.60;;;;;;9165928;19;20033;-64
2023/03/05 13:40:06;;;;;;;8.25;1.17;;;9.50;71.60;;;;;;9161820;19;20021;-64
2023/03/05 13:43:19;;;;;;;2.58;0.88;;;9.40;71.70;;;;;;9166487;19;20471;-64
2023/03/05 13:46:27;;;;;;;2.55;0.93;;;9.40;71.70;;;;;;9165615;19;20011;-64
2023/03/05 13:49:31;;;;;;;2.08;0.57;;;9.40;71.60;;;;;;9164284;19;20037;-63
2023/03/05 13:52:40;;;;;;;4.47;1.02;;;9.30;71.60;;;;;;9165646;19;20010;-64
2023/03/05 13:55:44;;;;;;;1.90;0.63;;;9.30;71.60;;;;;;9166362;19;20566;-64
2023/03/05 13:58:53;;;;;;;6.07;1.00;;;9.30;71.60;;;;;;9160970;19;20006;-64
2023/03/05 14:01:58;;;;;;;3.65;1.33;;;9.30;71.70;;;;;;9161009;19;20034;-64
2023/03/05 14:05:05;;;;;;;5.45;1.30;;;9.30;71.60;;;;;;9165270;19;20003;-63
2023/03/05 14:08:22;;;;;;;5.38;1.02;;;9.20;71.50;;;;;;9163177;19;20053;-64
2023/03/05 14:11:28;;;;;;;4.88;1.45;;;9.20;71.40;;;;;;9165408;19;20351;-64
2023/03/05 14:14:37;;;;;;;3.13;1.23;;;9.20;71.50;;;;;;9163460;19;20483;-64
2023/03/05 14:17:44;;;;;;;3.65;0.90;;;9.20;71.50;;;;;;9159008;19;20026;-65
2023/03/05 14:21:03;;;;;;;2.75;0.82;;;9.20;71.50;;;;;;9164483;19;20029;-65
2023/03/05 14:24:20;;;;;;;5.10;1.27;;;9.20;71.40;;;;;;9164041;19;20010;-64
2023/03/05 14:27:24;;;;;;;10.63;1.60;;;9.20;71.50;;;;;;9165977;19;20049;-65
2023/03/05 14:30:31;;;;;;;8.50;1.63;;;9.20;71.50;;;;;;9171803;19;20029;-64
2023/03/05 14:33:35;;;;;;;2.03;0.80;;;9.20;71.40;;;;;;9172648;19;20015;-65
2023/03/05 14:36:47;;;;;;;7.10;1.35;;;9.20;71.40;;;;;;9172110;19;20014;-64
2023/03/05 14:39:56;;;;;;;3.33;0.90;;;9.20;71.40;;;;;;9171444;19;20105;-64
2023/03/05 14:43:03;;;;;;;4.35;1.15;;;9.10;71.40;;;;;;9166619;19;20014;-64
2023/03/05 14:46:10;;;;;;;4.90;1.80;;;9.20;71.40;;;;;;9163804;19;20010;-64
2023/03/05 14:49:21;;;;;;;3.17;0.88;;;9.20;71.50;;;;;;9169675;19;20014;-64
2023/03/05 14:52:27;;;;;;;;;;;9.20;71.50;;;;;;9171630;19;20023;-64
2023/03/05 14:55:37;;;;;;;4.53;0.90;;;9.20;71.40;;;;;;9165515;19;20439;-64
2023/03/05 14:58:41;;;;;;;3.78;1.13;;;9.20;71.40;;;;;;9167553;19;20018;-63
2023/03/05 15:01:49;;;;;;;6.07;1.05;;;9.20;71.40;;;;;;9166255;19;20037;-63
2023/03/05 15:04:53;;;;;;;4.43;1.90;;;9.20;71.40;;;;;;9168821;19;20018;-63
2023/03/05 15:08:00;;;;;;;3.22;1.00;;;9.20;71.20;;;;;;9166822;19;20015;-63
2023/03/05 15:11:06;;;;;;;2.78;0.70;;;9.20;71.20;;;;;;9166137;19;20025;-64
2023/03/05 15:14:13;;;;;;;5.28;1.15;;;9.20;71.10;;;;;;9165802;19;20014;-64
2023/03/05 15:17:22;;;;;;;3.30;1.17;;;9.20;71.00;;;;;;9162667;19;20414;-64
2023/03/05 15:20:31;;;;;;;2.63;1.33;;;9.20;71.00;;;;;;9167262;19;20015;-63
2023/03/05 15:23:37;;;;;;;4.05;0.77;;;9.20;71.00;;;;;;9166740;19;20006;-63
2023/03/05 15:26:45;;;;;;;5.20;0.60;;;9.10;70.90;;;;;;9165574;19;20017;-63
2023/03/05 15:29:49;;;;;;;1.52;0.85;;;9.10;70.80;;;;;;9166235;19;20015;-63
2023/03/05 15:32:56;;;;;;;4.65;0.68;;;9.00;70.70;;;;;;9166368;19;20019;-64
2023/03/05 15:36:00;;;;;;;3.40;0.70;;;9.00;70.60;;;;;;9165323;19;20052;-64
2023/03/05 15:39:06;;;;;;;3.85;0.73;;;8.90;70.60;;;;;;9162687;19;20490;-64
2023/03/05 15:42:12;;;;;;;1.42;0.75;;;8.90;70.60;;;;;;9162331;19;20026;-63
2023/03/05 15:45:19;;;;;;;3.10;0.90;;;8.90;70.60;;;;;;9166556;19;20006;-63
2023/03/05 15:48:23;;;;;;;5.88;2.38;;;8.80;70.60;;;;;;9165928;19;20019;-64
2023/03/05 15:51:29;;;;;;;4.70;1.27;;;8.80;70.50;;;;;;9161767;19;20367;-63
2023/03/05 15:54:33;;;;;;;4.20;1.00;;;8.70;71.20;;;;;;9162132;19;20010;-63
2023/03/05 15:57:49;;;;;;;3.08;0.85;;;8.70;70.50;;;;;;9162603;19;20006;-63
2023/03/05 16:00:53;;;;;;;8.98;2.25;;;8.60;70.40;;;;;;9160842;19;20348;-63
2023/03/05 16:03:59;;;;;;;9.73;2.78;;;8.60;70.50;;;;;;9163135;19;20471;-63
2023/03/05 16:07:05;;;;;;;5.00;1.00;;;8.50;70.50;;;;;;9160326;19;20030;-63
2023/03/05 16:10:13;;;;;;;8.30;0.93;;;8.50;70.50;;;;;;9160728;19;20022;-63
2023/03/05 16:13:19;;;;;;;4.20;0.70;;;8.50;70.50;;;;;;9159914;19;20530;-64
2023/03/05 16:16:27;;;;;;;9.85;1.50;;;8.40;70.50;;;;;;9161276;19;20014;-64
2023/03/05 16:19:36;;;;;;;7.15;1.30;;;8.40;70.60;;;;;;9159583;19;20018;-64
2023/03/05 16:22:42;;;;;;;5.97;1.02;;;8.40;70.60;;;;;;9161725;19;20010;-64
2023/03/05 16:25:46;;;;;;;1.80;0.90;;;8.30;70.50;;;;;;9166779;19;20023;-64
2023/03/05 16:28:54;;;;;;;5.38;1.05;;;8.30;70.50;;;;;;9168747;19;20006;-64
2023/03/05 16:31:58;;;;;;;3.92;1.20;;;8.30;70.50;;;;;;9167594;19;20658;-64